createdAt,value
2023-03-25T00:00:01.604Z,14.78
2023-03-25T00:03:07.567Z,14.55
2023-03-25T00:06:14.702Z,13.88
2023-03-25T00:09:21.094Z,14.43
2023-03-25T00:12:27.670Z,17.70
2023-03-25T00:15:33.691Z,15.00
2023-03-25T00:18:44.372Z,18.25
2023-03-25T00:21:56.381Z,16.40
2023-03-25T00:25:03.647Z,19.37
2023-03-25T00:28:08.597Z,15.10
2023-03-25T00:31:15.970Z,14.43
2023-03-25T00:34:23.972Z,14.78
2023-03-25T00:37:32.026Z,14.50
2023-03-25T00:40:40.186Z,18.27
2023-03-25T00:43:47.408Z,18.17
2023-03-25T00:46:52.837Z,17.05
2023-03-25T00:50:00.769Z,17.02
2023-03-25T00:53:07.542Z,17.62
2023-03-25T00:56:14.287Z,17.32
2023-03-25T00:59:20.796Z,15.85
2023-03-25T01:02:27.980Z,16.60
2023-03-25T01:05:35.475Z,15.78
2023-03-25T01:08:42.315Z,17.90
2023-03-25T01:11:48.492Z,18.30
2023-03-25T01:14:54.583Z,13.93
2023-03-25T01:18:00.617Z,14.43
2023-03-25T01:21:07.442Z,16.95
2023-03-25T01:24:18.339Z,17.07
2023-03-25T01:27:23.793Z,16.45
2023-03-25T01:30:31.427Z,17.25
2023-03-25T01:33:39.066Z,14.07
2023-03-25T01:36:48.009Z,16.12
2023-03-25T01:39:55.561Z,15.03
2023-03-25T01:43:02.395Z,14.73
2023-03-25T01:46:08.933Z,13.30
2023-03-25T01:49:15.863Z,19.75
2023-03-25T01:52:28.388Z,14.40
2023-03-25T01:55:34.856Z,13.62
2023-03-25T01:58:42.651Z,12.80
2023-03-25T02:01:48.725Z,12.35
2023-03-25T02:05:17.477Z,14.00
2023-03-25T02:08:24.943Z,12.90
2023-03-25T02:11:32.923Z,13.05
2023-03-25T02:14:43.850Z,13.20
2023-03-25T02:18:04.724Z,13.55
2023-03-25T02:21:59.290Z,13.78
2023-03-25T02:25:17.195Z,14.38
2023-03-25T02:28:48.905Z,14.98
2023-03-25T02:32:22.325Z,18.00
2023-03-25T02:35:59.449Z,17.90
2023-03-25T02:39:08.184Z,15.45
2023-03-25T02:42:41.633Z,12.47
2023-03-25T02:45:50.039Z,16.50
2023-03-25T02:49:17.056Z,14.03
2023-03-25T02:52:33.668Z,16.50
2023-03-25T02:55:40.254Z,14.35
2023-03-25T02:58:45.271Z,12.50
2023-03-25T03:01:52.684Z,14.95
2023-03-25T03:05:11.053Z,15.40
2023-03-25T03:08:49.546Z,15.13
2023-03-25T03:12:28.575Z,14.80
2023-03-25T03:15:43.157Z,16.07
2023-03-25T03:19:08.725Z,11.53
2023-03-25T03:22:19.613Z,14.35
2023-03-25T03:25:38.676Z,16.52
2023-03-25T03:28:54.217Z,11.45
2023-03-25T03:32:23.590Z,15.65
2023-03-25T03:35:44.759Z,9.25
2023-03-25T03:39:00.620Z,10.70
2023-03-25T03:42:10.969Z,11.70
2023-03-25T03:45:24.030Z,11.70
2023-03-25T03:48:37.670Z,9.33
2023-03-25T03:51:54.664Z,10.55
2023-03-25T03:55:07.255Z,9.30
2023-03-25T03:58:16.647Z,12.70
2023-03-25T04:01:37.709Z,9.40
2023-03-25T04:04:45.984Z,10.35
2023-03-25T04:08:13.965Z,10.98
2023-03-25T04:11:28.997Z,7.05
2023-03-25T04:14:35.814Z,8.93
2023-03-25T04:17:43.458Z,8.48
2023-03-25T04:20:51.730Z,9.65
2023-03-25T04:23:58.706Z,10.20
2023-03-25T04:27:06.170Z,8.58
2023-03-25T04:30:11.929Z,10.82
2023-03-25T04:33:18.606Z,9.55
2023-03-25T04:36:27.110Z,8.65
2023-03-25T04:39:35.525Z,10.90
2023-03-25T04:42:44.362Z,9.40
2023-03-25T04:45:52.216Z,11.15
2023-03-25T04:49:00.007Z,7.33
2023-03-25T04:52:11.680Z,8.05
2023-03-25T04:55:19.562Z,9.83
2023-03-25T04:58:20.636Z,7.58
2023-03-25T05:01:08.553Z,6.83
2023-03-25T05:04:03.326Z,7.37
2023-03-25T05:06:58.766Z,9.75
2023-03-25T05:10:06.413Z,8.38
2023-03-25T05:13:16.479Z,9.53
2023-03-25T05:16:23.195Z,6.22
2023-03-25T05:19:30.312Z,8.83
2023-03-25T05:22:36.419Z,9.83
2023-03-25T05:25:44.932Z,7.80
2023-03-25T05:28:51.189Z,11.15
2023-03-25T05:31:59.728Z,6.40
2023-03-25T05:35:09.293Z,7.20
2023-03-25T05:38:22.503Z,7.03
2023-03-25T05:41:29.874Z,6.60
2023-03-25T05:44:35.858Z,12.40
2023-03-25T05:47:45.048Z,11.08
2023-03-25T05:50:54.599Z,16.30
2023-03-25T05:54:02.003Z,7.37
2023-03-25T05:57:07.964Z,7.72
2023-03-25T06:00:15.755Z,10.03
2023-03-25T06:03:22.587Z,10.88
2023-03-25T06:06:31.289Z,9.90
2023-03-25T06:09:37.720Z,7.60
2023-03-25T06:12:44.851Z,9.20
2023-03-25T06:15:51.761Z,6.05
2023-03-25T06:19:03.220Z,5.35
2023-03-25T06:22:11.468Z,5.83
2023-03-25T06:25:17.716Z,8.23
2023-03-25T06:28:25.310Z,5.90
2023-03-25T06:31:36.559Z,6.30
2023-03-25T06:34:43.962Z,7.80
2023-03-25T06:37:50.794Z,6.20
2023-03-25T06:41:00.224Z,7.50
2023-03-25T06:44:07.749Z,11.50
2023-03-25T06:47:19.960Z,8.15
2023-03-25T06:50:27.364Z,11.60
2023-03-25T06:53:34.415Z,9.58
2023-03-25T06:56:40.642Z,8.38
2023-03-25T06:59:46.554Z,6.75
2023-03-25T07:02:54.235Z,7.40
2023-03-25T07:06:00.057Z,7.17
2023-03-25T07:09:05.866Z,9.80
2023-03-25T07:12:13.495Z,8.65
2023-03-25T07:15:21.534Z,6.20
2023-03-25T07:18:28.251Z,6.70
2023-03-25T07:21:34.403Z,7.05
2023-03-25T07:24:40.517Z,6.28
2023-03-25T07:27:47.032Z,7.75
2023-03-25T07:30:46.564Z,7.58
2023-03-25T07:33:53.592Z,9.13
2023-03-25T07:36:58.701Z,11.60
2023-03-25T07:40:03.879Z,10.45
2023-03-25T07:43:08.620Z,16.45
2023-03-25T07:46:15.316Z,10.70
2023-03-25T07:49:21.273Z,14.95
2023-03-25T07:52:28.151Z,15.65
2023-03-25T07:55:34.556Z,15.53
2023-03-25T07:58:40.772Z,16.60
2023-03-25T08:01:47.134Z,15.65
2023-03-25T08:04:53.771Z,12.50
2023-03-25T08:07:59.520Z,13.70
2023-03-25T08:11:06.306Z,13.20
2023-03-25T08:14:12.009Z,13.35
2023-03-25T08:17:21.455Z,13.18
2023-03-25T08:20:28.629Z,11.95
2023-03-25T08:23:35.505Z,14.80
2023-03-25T08:26:42.457Z,12.95
2023-03-25T08:29:48.017Z,19.85
2023-03-25T08:32:56.749Z,21.17
2023-03-25T08:36:03.013Z,16.52
2023-03-25T08:39:10.479Z,18.10
2023-03-25T08:42:17.118Z,20.92
2023-03-25T08:45:24.082Z,22.02
2023-03-25T08:48:32.455Z,20.30
2023-03-25T08:51:39.571Z,23.07
2023-03-25T08:54:45.870Z,29.27
2023-03-25T08:57:54.562Z,26.33
2023-03-25T09:01:04.329Z,25.60
2023-03-25T09:04:09.731Z,22.70
2023-03-25T09:07:17.329Z,26.25
2023-03-25T09:10:23.683Z,27.48
2023-03-25T09:13:29.180Z,25.50
2023-03-25T09:16:35.206Z,20.82
2023-03-25T09:19:41.728Z,22.73
2023-03-25T09:22:48.070Z,25.52
2023-03-25T09:25:54.132Z,25.82
2023-03-25T09:29:02.352Z,25.97
2023-03-25T09:32:09.791Z,22.77
2023-03-25T09:35:15.356Z,20.37
2023-03-25T09:38:22.255Z,19.15
2023-03-25T09:41:57.218Z,21.77
2023-03-25T09:45:40.403Z,18.45
2023-03-25T09:49:03.422Z,20.70
2023-03-25T09:52:09.607Z,28.35
2023-03-25T09:55:21.367Z,34.53
2023-03-25T09:58:57.742Z,19.65
2023-03-25T10:05:56.547Z,16.12
2023-03-25T10:09:43.344Z,18.07
2023-03-25T10:13:14.008Z,17.80
2023-03-25T10:16:53.086Z,10.95
2023-03-25T10:20:28.685Z,18.02
2023-03-25T10:23:42.617Z,16.75
2023-03-25T10:27:08.771Z,15.05
2023-03-25T10:30:25.079Z,14.10
2023-03-25T10:33:50.963Z,23.55
2023-03-25T10:37:06.790Z,12.15
2023-03-25T10:40:32.382Z,17.98
2023-03-25T10:43:50.818Z,26.23
2023-03-25T10:47:20.296Z,26.30
2023-03-25T10:50:31.176Z,21.42
2023-03-25T10:53:40.930Z,18.12
2023-03-25T10:56:51.622Z,27.90
2023-03-25T11:00:17.097Z,23.57
2023-03-25T11:03:27.970Z,20.25
2023-03-25T11:06:35.999Z,17.70
2023-03-25T11:09:44.862Z,21.62
2023-03-25T11:12:55.403Z,15.53
2023-03-25T11:16:01.775Z,16.82
2023-03-25T11:19:08.404Z,30.37
2023-03-25T11:22:38.936Z,24.75
2023-03-25T11:25:52.665Z,25.95
2023-03-25T11:29:10.441Z,22.98
2023-03-25T11:32:28.652Z,16.85
2023-03-25T11:35:41.501Z,15.45
2023-03-25T11:41:51.926Z,15.15
2023-03-25T11:44:58.418Z,22.65
2023-03-25T11:48:04.673Z,14.30
2023-03-25T11:51:13.308Z,17.37
2023-03-25T11:54:27.122Z,14.38
2023-03-25T11:57:42.114Z,12.55
2023-03-25T12:00:56.882Z,17.95
2023-03-25T12:04:03.708Z,14.05
2023-03-25T12:07:17.648Z,16.77
2023-03-25T12:10:31.913Z,15.10
2023-03-25T12:13:59.448Z,12.00
2023-03-25T12:17:41.455Z,15.38
2023-03-25T12:21:11.455Z,20.40
2023-03-25T12:24:30.651Z,14.03
2023-03-25T12:28:17.242Z,17.15
2023-03-25T12:31:28.453Z,20.95
2023-03-25T12:34:48.342Z,15.53
2023-03-25T12:38:27.539Z,20.55
2023-03-25T12:41:56.877Z,38.88
2023-03-25T12:45:29.990Z,29.60
2023-03-25T12:48:56.687Z,19.30
2023-03-25T12:52:37.725Z,20.95
2023-03-25T12:56:11.212Z,16.48
2023-03-25T12:59:53.789Z,25.45
2023-03-25T13:03:28.089Z,15.75
2023-03-25T13:06:58.676Z,17.55
2023-03-25T13:10:29.361Z,21.70
2023-03-25T13:13:36.001Z,14.38
2023-03-25T13:16:44.772Z,14.90
2023-03-25T13:19:51.311Z,17.07
2023-03-25T13:23:05.718Z,13.48
2023-03-25T13:26:26.496Z,14.53
2023-03-25T13:29:58.628Z,16.27
2023-03-25T13:33:09.613Z,12.23
2023-03-25T13:36:45.178Z,15.93
2023-03-25T13:40:28.851Z,16.30
2023-03-25T13:43:59.789Z,13.85
2023-03-25T13:47:11.455Z,14.47
2023-03-25T13:50:38.476Z,19.85
2023-03-25T13:53:55.190Z,17.00
2023-03-25T13:57:26.733Z,18.17
2023-03-25T14:00:57.081Z,24.98
2023-03-25T14:04:47.048Z,18.37
2023-03-25T14:08:08.760Z,15.13
2023-03-25T14:11:30.935Z,16.77
2023-03-25T14:14:36.550Z,23.80
2023-03-25T14:17:42.252Z,21.77
2023-03-25T14:20:54.818Z,21.17
2023-03-25T14:24:03.337Z,17.30
2023-03-25T14:27:14.968Z,18.77
2023-03-25T14:30:42.727Z,19.20
2023-03-25T14:34:15.713Z,17.80
2023-03-25T14:37:38.615Z,19.77
2023-03-25T14:41:04.109Z,22.10
2023-03-25T14:44:15.372Z,17.90
2023-03-25T14:47:44.481Z,29.80
2023-03-25T14:50:51.589Z,22.00
2023-03-25T14:54:33.647Z,28.40
2023-03-25T14:57:42.891Z,25.10
2023-03-25T15:00:56.121Z,22.50
2023-03-25T15:04:04.021Z,18.55
2023-03-25T15:07:13.083Z,22.17
2023-03-25T15:10:22.672Z,24.57
2023-03-25T15:13:45.634Z,24.02
2023-03-25T15:17:05.310Z,25.25
2023-03-25T15:20:24.582Z,25.50
2023-03-25T15:24:07.438Z,20.10
2023-03-25T15:27:38.779Z,19.90
2023-03-25T15:31:04.769Z,23.75
2023-03-25T15:34:36.565Z,22.05
2023-03-25T15:38:03.360Z,23.60
2023-03-25T15:41:30.734Z,25.00
2023-03-25T15:45:00.589Z,33.40
2023-03-25T15:48:32.340Z,32.23
2023-03-25T15:51:58.158Z,39.15
2023-03-25T15:55:20.409Z,32.00
2023-03-25T15:58:40.870Z,39.58
2023-03-25T16:01:53.157Z,26.68
2023-03-25T16:05:01.899Z,29.02
2023-03-25T16:08:08.494Z,30.32
2023-03-25T16:11:37.850Z,37.80
2023-03-25T16:14:47.992Z,30.20
2023-03-25T16:17:55.249Z,32.08
2023-03-25T16:21:01.319Z,21.97
2023-03-25T16:24:11.401Z,39.10
2023-03-25T16:27:28.170Z,29.40
2023-03-25T16:30:40.840Z,36.23
2023-03-25T16:33:49.419Z,38.28
2023-03-25T16:36:57.147Z,60.98
2023-03-25T16:40:07.132Z,52.90
2023-03-25T16:43:20.505Z,48.17
2023-03-25T16:46:26.584Z,32.42
2023-03-25T16:49:50.699Z,24.67
2023-03-25T16:52:57.147Z,27.60
2023-03-25T16:56:04.140Z,29.63
2023-03-25T16:59:22.904Z,42.33
2023-03-25T17:02:46.627Z,34.78
2023-03-25T17:05:55.640Z,30.62
2023-03-25T17:09:12.512Z,38.67
2023-03-25T17:12:25.054Z,46.58
2023-03-25T17:15:32.054Z,79.97
2023-03-25T17:18:43.890Z,104.72
2023-03-25T17:21:51.520Z,113.30
2023-03-25T17:24:57.391Z,97.90
2023-03-25T17:28:03.112Z,94.87
2023-03-25T17:31:09.334Z,84.15
2023-03-25T17:34:27.407Z,73.40
2023-03-25T17:37:33.654Z,77.17
2023-03-25T17:40:40.607Z,67.92
2023-03-25T17:43:48.821Z,66.57
2023-03-25T17:46:55.936Z,73.28
2023-03-25T17:50:03.640Z,51.30
2023-03-25T17:53:10.700Z,57.90
2023-03-25T17:56:17.474Z,54.25
2023-03-25T17:59:34.697Z,47.23
2023-03-25T18:02:43.000Z,39.78
2023-03-25T18:05:50.481Z,43.02
2023-03-25T18:08:57.599Z,56.58
2023-03-25T18:12:06.333Z,39.23
2023-03-25T18:15:13.572Z,40.05
2023-03-25T18:18:21.263Z,44.35
2023-03-25T18:21:29.948Z,36.70
2023-03-25T18:24:35.048Z,31.65
2023-03-25T18:27:44.205Z,31.05
2023-03-25T18:31:11.853Z,29.72
2023-03-25T18:34:20.045Z,33.55
2023-03-25T18:37:25.857Z,33.23
2023-03-25T18:40:35.988Z,34.83
2023-03-25T18:43:45.296Z,29.20
2023-03-25T18:46:51.482Z,27.82
2023-03-25T18:49:57.701Z,34.88
2023-03-25T18:53:04.966Z,29.35
2023-03-25T18:56:11.261Z,30.97
2023-03-25T18:59:17.990Z,32.42
2023-03-25T19:02:24.555Z,45.90
2023-03-25T19:05:30.577Z,31.82
2023-03-25T19:08:37.690Z,32.33
2023-03-25T19:11:43.889Z,29.32
2023-03-25T19:14:51.817Z,37.38
2023-03-25T19:18:01.365Z,30.62
2023-03-25T19:21:09.728Z,28.40
2023-03-25T19:24:15.648Z,30.23
2023-03-25T19:27:21.829Z,30.62
2023-03-25T19:30:31.869Z,34.35
2023-03-25T19:33:37.917Z,36.70
2023-03-25T19:36:42.742Z,34.92
2023-03-25T19:39:49.758Z,34.98
2023-03-25T19:42:55.809Z,32.73
2023-03-25T19:46:02.295Z,27.70
2023-03-25T19:49:10.859Z,27.13
2023-03-25T19:52:17.176Z,27.45
2023-03-25T19:55:23.934Z,28.02
2023-03-25T19:58:32.244Z,26.25
2023-03-25T20:01:39.965Z,28.47
2023-03-25T20:04:49.138Z,30.05
2023-03-25T20:08:02.184Z,26.87
2023-03-25T20:11:08.378Z,28.45
2023-03-25T20:14:16.058Z,29.12
2023-03-25T20:17:22.504Z,27.13
2023-03-25T20:20:29.457Z,25.17
2023-03-25T20:23:37.822Z,31.07
2023-03-25T20:26:43.918Z,33.25
2023-03-25T20:29:50.003Z,31.95
2023-03-25T20:32:56.479Z,30.00
2023-03-25T20:36:03.866Z,31.10
2023-03-25T20:39:12.636Z,34.65
2023-03-25T20:42:18.597Z,33.90
2023-03-25T20:45:27.114Z,30.65
2023-03-25T20:48:34.915Z,34.63
2023-03-25T20:51:43.560Z,32.70
2023-03-25T20:54:50.057Z,32.48
2023-03-25T20:57:56.945Z,34.85
2023-03-25T21:01:05.930Z,29.42
2023-03-25T21:04:14.420Z,30.88
2023-03-25T21:07:24.650Z,33.02
2023-03-25T21:10:30.773Z,36.30
2023-03-25T21:13:38.885Z,33.90
2023-03-25T21:16:47.639Z,35.92
2023-03-25T21:19:57.222Z,27.90
2023-03-25T21:23:05.744Z,30.75
2023-03-25T21:26:14.579Z,31.35
2023-03-25T21:29:20.493Z,32.80
2023-03-25T21:32:27.695Z,32.45
2023-03-25T21:35:35.433Z,35.03
2023-03-25T21:38:41.062Z,30.10
2023-03-25T21:41:47.143Z,34.33
2023-03-25T21:44:55.369Z,36.15
2023-03-25T21:48:02.329Z,32.98
2023-03-25T21:51:11.394Z,29.92
2023-03-25T21:54:18.672Z,34.73
2023-03-25T21:57:24.760Z,37.13
2023-03-25T22:00:32.912Z,35.10
2023-03-25T22:03:43.666Z,28.12
2023-03-25T22:06:49.134Z,31.65
2023-03-25T22:09:55.690Z,31.62
2023-03-25T22:13:02.221Z,31.35
2023-03-25T22:16:11.722Z,29.15
2023-03-25T22:19:22.570Z,35.83
2023-03-25T22:22:29.045Z,28.90
2023-03-25T22:25:37.952Z,33.48
2023-03-25T22:28:44.596Z,31.50
2023-03-25T22:31:50.625Z,29.87
2023-03-25T22:34:57.371Z,29.92
2023-03-25T22:38:04.227Z,34.75
2023-03-25T22:41:10.858Z,29.55
2023-03-25T22:44:17.289Z,33.15
2023-03-25T22:47:24.704Z,32.10
2023-03-25T22:50:31.335Z,32.05
2023-03-25T22:53:40.071Z,37.25
2023-03-25T22:56:45.410Z,35.13
2023-03-25T22:59:52.281Z,34.70
2023-03-25T23:02:54.193Z,33.70
2023-03-25T23:06:13.564Z,34.05
2023-03-25T23:09:24.165Z,34.53
2023-03-25T23:12:36.077Z,31.75
2023-03-25T23:15:43.449Z,30.85
2023-03-25T23:18:49.358Z,34.70
2023-03-25T23:21:55.288Z,31.33
2023-03-25T23:25:02.820Z,31.00
2023-03-25T23:28:08.618Z,35.28
2023-03-25T23:31:14.932Z,35.20
2023-03-25T23:34:22.691Z,32.53
2023-03-25T23:37:28.372Z,32.10
2023-03-25T23:40:35.579Z,33.50
2023-03-25T23:43:41.718Z,33.08
2023-03-25T23:46:48.969Z,33.10
2023-03-25T23:49:55.792Z,30.02
2023-03-25T23:53:04.184Z,37.08
2023-03-25T23:56:09.723Z,34.13
2023-03-25T23:59:15.845Z,34.55
